ADDS METAR Data INFO
IDs: Format: Raw Decoded Include TAF

Data at: 0142 UTC 19 Oct 2017

METAR for:KRYW (Lago Vista/Allen Arp, TX, US)
Text:KRYW 190135Z AUTO 15004KT 10SM CLR 22/10 A3012 RMK AO2 T02170095
Temperature: 21.7°C ( 71°F)
Dewpoint: 9.5°C ( 49°F) [RH = 46%]
Pressure (altimeter):30.12 inches Hg (1020.1 mb)
Winds:from the SSE (150 degrees) at 5 MPH (4 knots; 2.1 m/s)
Visibility:10 or more sm (16+ km)
Ceiling:at least 12,000 feet AGL
Clouds:sky clear below 12,000 feet AGL
QC Flag:automated observation with no human augmentation